Alief, Texas
Current Conditions -  °F | °C
As of 5:18 PM on Saturday 20 Dec 2014 (Local Time) from KSGR Reporting Station
Overcast Overcast  
Wind Chill: 54°   Ceiling: 1400
Heat Index: 54°   Visibility: 10mi
Dew Point: 49°   Wind: 6mph
Humidity: 83%   Direction: 30°NNE
Pressure: 30.16"   Gusts: NA
Location:  29.71°N, 95.6°W
Report Text: KSGR 202318Z 03005KT 10SM OVC014 12/09 A3016 RMK AO2 T01220094
Loading
Personal Weather Stations






























Interactive Weather Map New forecast layout! Learn more

10-Day Weather Forecast

Advertisements
Track Severe Weather on mobile